TAF KFXE
AMD KFXE 082058Z 0821/0918 22008KT P6SM FEW040 SCT250 FM090100 VRB03KT P6SM FEW030 FM091600 10006KT P6SM FEW030 SCT050=
METAR KFXE
WC KFXE
WS KFXE
WV KFXE